Accueil
METAR-TAF:

METAR-TAF

Aéroports :

Cabo San Lucas, Mexique

latitude: 22-56-51N, longitude: 109-56-13W, altitude: 210 m

Observation

Le bulletin a été fait il y a 2 heures et 1 minutes, à 11:48 UTC
Vent 6 kt de nord-ouest
Température 26°C
Humidité 74%
Pression 1013 hPa
Visibilité: 11.3 km
Ciel clair

METAR: MMSL 211148Z 31006KT 7SM SKC 26/21 A2992 RMK ISOL CI RTS

Heure: 06:49 (13:49 UTC)

Prévision

Le bulletin a été fait il y a 8 heures et 56 minutes, à 04:53 UTC
Prévision valable du 21 à 06 UTC au 22 à 06 UTC
Vent 5 kt de ouest
Visibilité: 10 km
Nuages épars à une hauteur de 3000 ft
A partir de 21 à 1800 UTC
Vent 10 kt de sud-est
Visibilité: 10 km
Nuages épars à une hauteur de 3000 ft
A partir de 22 à 0200 UTC
Vent 5 kt de nord
Visibilité: 10 km
Nuages épars à une hauteur de 8000 ft
Nuages épars à une hauteur de 25000 ft

TAF: MMSL 210453Z 2106/2206 26005KT P6SM SCT030 FM211800 13010KT P6SM SCT030 FM220200 36005KT P6SM SCT080 SCT250

Observations et prévisions météorologiques de plus de 4000 aéroports (messages METAR et TAF).

Les stations disponibles sont représentées par des disques jaunes et rouges sur la carte.

Passer la souris dessus pour voir le nom de la station.

Cliquer dessus pour voir les observations et prévisions météorologiques.

Pour changer de carte: cliquez sur les boutons verts avec une croix noire pour zoomer, sur le bouton vert avec un tiret pour effectuer un zoom arrière, ou sur les flèches vertes pour les cartes adjacentes.


METAR-TAF: